Time;durP1;ratioP1;P1;durP2;ratioP2;P2;SDS_P1;SDS_P2;PMS_P1;PMS_P2;Temp;Humidity;BMP_temperature;BMP_pressure;BME280_temperature;BME280_humidity;BME280_pressure;Samples;Min_cycle;Max_cycle;Signal;HPM_P1;HPM_P2
2023/08/10 00:00:41;;;;;;;3.00;1.40;;;21.40;99.90;;;;;;1889958;75;21132;-87
2023/08/10 00:06:12;;;;;;;1.75;1.25;;;21.30;99.90;;;;;;1930320;72;22181;-87
2023/08/10 00:11:42;;;;;;;2.25;1.10;;;21.30;99.90;;;;;;1936021;72;22266;-87
2023/08/10 00:14:33;;;;;;;1.90;1.20;;;21.30;99.90;;;;;;1884476;75;21126;-87
2023/08/10 00:20:12;;;;;;;1.62;1.40;;;21.40;99.90;;;;;;1965551;72;22307;-86
2023/08/10 00:25:42;;;;;;;2.95;1.30;;;21.40;99.90;;;;;;1949035;72;22233;-86
2023/08/10 00:31:16;;;;;;;1.82;1.30;;;21.30;99.90;;;;;;1955580;72;22194;-86
2023/08/10 00:34:08;;;;;;;1.80;1.35;;;21.20;99.90;;;;;;1911927;75;21106;-86
2023/08/10 00:36:59;;;;;;;2.45;1.30;;;21.30;99.90;;;;;;1885003;75;21110;-86
2023/08/10 00:42:28;;;;;;;2.08;1.30;;;21.30;99.90;;;;;;1962506;72;22236;-86
2023/08/10 00:45:20;;;;;;;2.20;1.12;;;21.30;99.90;;;;;;1938338;73;21240;-87
2023/08/10 00:48:11;;;;;;;1.55;1.20;;;21.30;99.90;;;;;;1915953;73;21115;-86
2023/08/10 00:51:02;;;;;;;1.75;1.10;;;21.30;99.90;;;;;;1918517;73;21582;-86
2023/08/10 00:53:54;;;;;;;2.85;1.07;;;21.20;99.90;;;;;;1919526;73;21082;-86
2023/08/10 00:56:45;;;;;;;2.47;1.30;;;21.20;99.90;;;;;;1915766;73;21098;-87
2023/08/10 01:02:15;;;;;;;1.80;1.17;;;21.10;99.90;;;;;;1952928;72;22269;-86
2023/08/10 01:07:52;;;;;;;1.47;1.20;;;21.10;99.90;;;;;;1944850;72;22169;-86
2023/08/10 01:10:46;;;;;;;1.50;1.15;;;21.10;99.90;;;;;;1901043;75;21577;-86
2023/08/10 01:13:40;;;;;;;1.20;1.10;;;21.00;99.90;;;;;;1899090;75;21111;-86
2023/08/10 01:19:19;;;;;;;1.70;1.20;;;20.80;99.90;;;;;;1949729;72;22265;-86
2023/08/10 01:22:16;;;;;;;1.65;1.02;;;20.90;99.90;;;;;;1884942;74;21162;-86
2023/08/10 01:25:09;;;;;;;3.08;1.37;;;20.90;99.90;;;;;;1899658;75;21144;-86
2023/08/10 01:28:01;;;;;;;3.00;1.17;;;20.80;99.90;;;;;;1905151;75;21159;-86
2023/08/10 01:30:53;;;;;;;1.70;1.20;;;20.90;99.90;;;;;;1881409;75;21146;-85
2023/08/10 01:33:44;;;;;;;1.10;1.00;;;20.90;99.90;;;;;;1894514;75;21094;-86
2023/08/10 01:36:36;;;;;;;1.55;1.27;;;20.90;99.90;;;;;;1904332;75;21192;-86
2023/08/10 01:39:27;;;;;;;2.27;1.22;;;21.00;99.90;;;;;;1906972;75;21093;-86
2023/08/10 01:42:18;;;;;;;2.80;1.40;;;20.90;99.90;;;;;;1900807;75;21090;-86
2023/08/10 01:50:37;;;;;;;3.00;1.30;;;20.80;99.90;;;;;;1952803;72;22273;-86
2023/08/10 01:56:09;;;;;;;1.98;1.30;;;20.70;99.90;;;;;;1950215;72;22211;-86
2023/08/10 02:01:39;;;;;;;1.80;1.20;;;20.70;99.90;;;;;;1957719;72;22623;-87
2023/08/10 02:04:30;;;;;;;2.27;1.20;;;20.60;99.90;;;;;;1941344;73;21115;-87
2023/08/10 02:10:10;;;;;;;1.12;1.02;;;20.60;99.90;;;;;;1942242;72;22182;-86
2023/08/10 02:13:01;;;;;;;1.62;1.30;;;20.60;99.90;;;;;;1920451;73;21149;-86
2023/08/10 02:15:52;;;;;;;2.20;1.25;;;20.60;99.90;;;;;;1915501;75;21153;-87
2023/08/10 02:18:44;;;;;;;1.62;1.20;;;20.60;99.90;;;;;;1921198;73;21125;-86
2023/08/10 02:21:35;;;;;;;2.08;1.30;;;20.60;99.90;;;;;;1914867;73;21194;-86
2023/08/10 02:27:11;;;;;;;2.12;1.50;;;20.50;99.90;;;;;;1933112;72;38268;-86
2023/08/10 02:30:02;;;;;;;2.00;1.30;;;20.80;99.90;;;;;;1913139;74;21102;-86
2023/08/10 02:35:32;;;;;;;1.57;1.10;;;20.60;99.90;;;;;;1942579;72;22258;-87
2023/08/10 02:41:01;;;;;;;3.33;1.50;;;20.50;99.90;;;;;;1934733;72;22216;-87
2023/08/10 02:43:52;;;;;;;2.02;1.20;;;20.50;99.90;;;;;;1897011;75;21094;-87
2023/08/10 02:46:43;;;;;;;1.95;1.20;;;20.40;99.90;;;;;;1882859;76;21210;-86
2023/08/10 02:52:13;;;;;;;3.80;1.40;;;20.30;99.90;;;;;;1953048;72;22240;-87
2023/08/10 02:55:05;;;;;;;2.17;1.87;;;20.30;99.90;;;;;;1905853;75;21105;-86
2023/08/10 02:57:58;;;;;;;2.20;1.80;;;20.30;99.90;;;;;;1915382;75;21090;-87
2023/08/10 03:00:49;;;;;;;3.37;2.12;;;20.30;99.90;;;;;;1897326;75;21169;-87
2023/08/10 03:03:40;;;;;;;2.65;1.87;;;20.30;99.90;;;;;;1904870;75;21147;-87
2023/08/10 03:06:32;;;;;;;2.27;1.82;;;20.30;99.90;;;;;;1895291;75;21088;-87
2023/08/10 03:09:23;;;;;;;2.20;1.72;;;20.30;99.90;;;;;;1882202;75;21700;-86
2023/08/10 03:12:15;;;;;;;2.65;1.72;;;20.20;99.90;;;;;;1904260;75;21143;-87
2023/08/10 03:15:11;;;;;;;1.95;1.50;;;20.20;99.90;;;;;;1888834;75;21190;-86
2023/08/10 03:20:42;;;;;;;2.30;1.57;;;20.00;99.90;;;;;;1933963;72;22300;-87
2023/08/10 03:26:17;;;;;;;2.00;1.37;;;20.00;99.90;;;;;;1942450;72;22194;-87
2023/08/10 03:29:08;;;;;;;1.77;1.50;;;20.00;99.90;;;;;;1935667;73;21090;-86
2023/08/10 03:32:00;;;;;;;2.98;1.35;;;20.00;99.90;;;;;;1941680;73;21247;-86
2023/08/10 03:34:52;;;;;;;1.70;1.10;;;20.00;99.90;;;;;;1944830;73;21114;-86
2023/08/10 03:40:23;;;;;;;3.80;1.60;;;19.90;99.90;;;;;;1954547;73;22274;-86
2023/08/10 03:45:53;;;;;;;3.47;1.35;;;19.70;99.90;;;;;;1919245;72;22232;-87
2023/08/10 03:48:44;;;;;;;1.32;1.00;;;19.70;99.90;;;;;;1899156;75;21155;-86
2023/08/10 03:51:36;;;;;;;1.72;1.35;;;19.70;99.90;;;;;;1905363;73;21108;-87
2023/08/10 03:54:28;;;;;;;2.25;1.25;;;19.70;99.90;;;;;;1905023;73;21753;-87
2023/08/10 03:57:20;;;;;;;2.35;1.35;;;19.60;99.90;;;;;;1904763;75;21126;-87
2023/08/10 04:02:50;;;;;;;2.40;1.60;;;19.60;99.90;;;;;;1941608;72;22193;-87
2023/08/10 04:05:42;;;;;;;1.87;1.42;;;19.60;99.90;;;;;;1916452;73;21224;-87
2023/08/10 04:11:13;;;;;;;2.72;1.77;;;19.60;99.90;;;;;;1962876;72;22192;-87
2023/08/10 04:14:06;;;;;;;1.82;1.45;;;19.60;99.90;;;;;;1915989;73;21480;-87
2023/08/10 04:16:57;;;;;;;4.25;1.60;;;19.60;99.90;;;;;;1916069;75;21110;-87
2023/08/10 04:19:49;;;;;;;2.15;1.50;;;19.60;99.90;;;;;;1931421;73;21134;-87
2023/08/10 04:22:41;;;;;;;2.15;1.30;;;19.60;99.90;;;;;;1930919;73;21160;-87
2023/08/10 04:28:15;;;;;;;1.70;1.22;;;19.60;99.90;;;;;;1939967;72;22149;-87
2023/08/10 04:31:07;;;;;;;3.87;1.30;;;19.60;99.90;;;;;;1950038;73;21187;-87
2023/08/10 04:33:59;;;;;;;2.30;1.37;;;19.60;99.90;;;;;;1951592;73;21114;-87
2023/08/10 04:36:51;;;;;;;2.42;1.57;;;19.60;99.90;;;;;;1915401;75;21179;-88
2023/08/10 04:39:43;;;;;;;1.37;1.17;;;19.60;99.90;;;;;;1938738;73;21111;-88
2023/08/10 04:45:47;;;;;;;2.20;1.30;;;19.50;99.90;;;;;;1970606;71;22153;-87
2023/08/10 04:51:24;;;;;;;3.98;1.40;;;19.40;99.90;;;;;;1975112;72;20145;-86
2023/08/10 04:54:15;;;;;;;1.95;1.40;;;19.50;99.90;;;;;;1932259;73;21134;-87
2023/08/10 04:57:08;;;;;;;2.62;1.45;;;19.50;99.90;;;;;;1926929;73;21210;-87
2023/08/10 04:59:59;;;;;;;2.92;1.55;;;19.40;99.90;;;;;;1946513;73;21175;-86
2023/08/10 05:02:51;;;;;;;3.05;1.60;;;19.40;99.90;;;;;;1926427;73;21153;-87
2023/08/10 05:05:42;;;;;;;1.57;1.22;;;19.40;99.90;;;;;;1916300;73;21123;-87
2023/08/10 05:11:15;;;;;;;2.20;1.65;;;19.50;99.90;;;;;;1946890;72;22275;-86
2023/08/10 05:16:49;;;;;;;3.35;1.55;;;19.40;99.90;;;;;;1959709;72;22172;-87
2023/08/10 05:19:41;;;;;;;3.37;1.62;;;19.40;99.90;;;;;;1938462;73;21547;-88
2023/08/10 05:27:58;;;;;;;2.70;1.92;;;19.30;99.90;;;;;;1940103;72;22203;-86
2023/08/10 05:30:49;;;;;;;5.12;2.30;;;19.30;99.90;;;;;;1916484;73;21552;-85
2023/08/10 05:33:40;;;;;;;4.97;2.10;;;19.40;99.90;;;;;;1920440;73;21131;-85
2023/08/10 05:36:31;;;;;;;2.58;1.70;;;19.40;99.90;;;;;;1915546;73;21082;-85
2023/08/10 05:39:23;;;;;;;4.70;2.30;;;19.50;99.90;;;;;;1919857;73;21198;-86
2023/08/10 05:42:15;;;;;;;2.80;2.20;;;19.50;99.90;;;;;;1920915;73;21109;-86
2023/08/10 05:45:09;;;;;;;3.02;2.10;;;19.60;99.90;;;;;;1916011;73;21102;-86
2023/08/10 05:48:00;;;;;;;2.70;2.22;;;19.60;99.90;;;;;;1915585;73;21212;-85
2023/08/10 05:50:52;;;;;;;3.08;1.90;;;19.70;99.90;;;;;;1916884;73;21194;-82
2023/08/10 05:53:44;;;;;;;4.37;2.27;;;19.80;99.90;;;;;;1915512;73;21554;-76
2023/08/10 05:56:35;;;;;;;2.50;1.80;;;19.90;99.90;;;;;;1915089;73;21091;-75
2023/08/10 05:59:26;;;;;;;1.87;1.40;;;19.80;99.90;;;;;;1915457;73;21155;-75
2023/08/10 06:02:17;;;;;;;2.12;1.60;;;19.80;99.90;;;;;;1915568;73;21196;-75
2023/08/10 06:05:09;;;;;;;2.55;1.40;;;19.80;99.90;;;;;;1920978;73;21097;-75
2023/08/10 06:08:02;;;;;;;3.62;2.00;;;19.90;99.90;;;;;;1914504;73;21098;-75
2023/08/10 06:10:53;;;;;;;3.95;1.75;;;19.90;99.90;;;;;;1915504;73;21115;-76
2023/08/10 06:13:44;;;;;;;2.17;1.27;;;20.00;99.90;;;;;;1914749;73;21241;-75
2023/08/10 06:16:35;;;;;;;3.55;1.42;;;20.00;99.90;;;;;;1914538;73;21131;-75
2023/08/10 06:19:26;;;;;;;2.20;1.55;;;20.10;99.90;;;;;;1915999;73;21117;-75
2023/08/10 06:22:17;;;;;;;3.30;1.65;;;20.20;99.90;;;;;;1912807;73;21209;-76
2023/08/10 06:25:12;;;;;;;3.25;1.65;;;20.30;99.90;;;;;;1920398;73;21134;-76
2023/08/10 06:28:04;;;;;;;2.15;1.60;;;20.40;99.90;;;;;;1912868;73;21119;-76
2023/08/10 06:30:55;;;;;;;3.80;1.60;;;20.50;99.90;;;;;;1846710;76;21247;-76
2023/08/10 06:33:46;;;;;;;9.73;2.15;;;20.50;99.90;;;;;;1909688;74;21595;-76
2023/08/10 06:36:38;;;;;;;3.58;1.90;;;20.60;99.90;;;;;;1908071;74;21559;-76
2023/08/10 06:39:30;;;;;;;3.42;1.65;;;20.70;99.90;;;;;;1907051;74;21189;-76
2023/08/10 06:42:21;;;;;;;2.80;1.85;;;20.80;99.90;;;;;;1912139;74;21677;-76
2023/08/10 06:45:14;;;;;;;2.92;1.50;;;20.90;99.90;;;;;;1906556;74;21176;-76
2023/08/10 06:48:07;;;;;;;4.72;1.87;;;20.90;99.90;;;;;;1909292;74;21123;-76
2023/08/10 06:50:59;;;;;;;5.03;1.70;;;21.00;99.90;;;;;;1905057;74;21705;-76
2023/08/10 06:53:49;;;;;;;2.62;1.40;;;21.10;99.90;;;;;;1911274;74;21156;-76
2023/08/10 06:56:41;;;;;;;3.05;1.82;;;21.10;99.90;;;;;;1908564;74;21156;-76
2023/08/10 06:59:32;;;;;;;2.37;1.37;;;21.20;99.90;;;;;;1908301;74;21133;-76
2023/08/10 07:02:25;;;;;;;6.53;1.55;;;21.30;99.90;;;;;;1919945;74;21106;-76
2023/08/10 07:05:17;;;;;;;3.40;1.52;;;21.40;99.90;;;;;;1907192;74;21161;-76
2023/08/10 07:10:47;;;;;;;5.75;1.80;;;21.40;99.90;;;;;;1919381;72;22310;-75
2023/08/10 07:16:21;;;;;;;4.20;1.60;;;21.60;99.90;;;;;;1934031;72;22272;-75
2023/08/10 07:19:12;;;;;;;1.62;1.22;;;21.70;99.90;;;;;;1909086;74;21163;-75
2023/08/10 07:22:04;;;;;;;2.27;1.55;;;21.80;99.90;;;;;;1905136;74;21138;-75
2023/08/10 07:24:56;;;;;;;1.37;1.27;;;21.90;99.90;;;;;;1869048;76;21260;-75
2023/08/10 07:30:26;;;;;;;7.90;1.90;;;22.20;99.90;;;;;;1907594;72;22325;-76
2023/08/10 07:33:17;;;;;;;2.65;1.82;;;22.30;99.90;;;;;;1915679;73;21175;-75
2023/08/10 07:36:09;;;;;;;3.37;2.00;;;22.30;99.90;;;;;;1915363;75;21176;-75
2023/08/10 09:03:58;;;;;;;2.20;1.60;;;24.40;99.90;;;;;;1861447;76;21142;-77
2023/08/10 09:06:49;;;;;;;2.33;1.60;;;24.40;99.90;;;;;;1872563;75;21130;-76
2023/08/10 09:12:33;;;;;;;2.08;1.60;;;24.50;99.90;;;;;;1930822;72;23463;-76
2023/08/10 09:15:27;;;;;;;2.92;1.67;;;24.70;99.90;;;;;;1885139;75;21410;-76
2023/08/10 09:21:14;;;;;;;3.15;1.60;;;25.00;99.90;;;;;;1949498;72;22152;-75
2023/08/10 09:24:08;;;;;;;3.22;1.65;;;25.20;99.90;;;;;;1920780;74;21095;-76
2023/08/10 09:29:42;;;;;;;2.60;1.70;;;25.50;99.90;;;;;;1927907;72;23236;-76
2023/08/10 09:35:17;;;;;;;1.92;1.30;;;25.80;99.90;;;;;;1939672;72;22201;-79
2023/08/10 09:38:08;;;;;;;1.85;1.52;;;26.00;99.90;;;;;;1907029;74;21062;-78
2023/08/10 09:41:14;;;;;;;2.47;1.65;;;26.00;99.90;;;;;;1882509;75;21349;-78
2023/08/10 09:44:07;;;;;;;2.40;1.70;;;26.10;99.90;;;;;;1885733;75;21118;-77
2023/08/10 09:46:59;;;;;;;2.50;1.62;;;26.00;99.90;;;;;;1882922;75;21199;-76
2023/08/10 09:49:57;;;;;;;2.27;1.42;;;26.20;99.90;;;;;;1911528;75;21110;-76
2023/08/10 09:55:35;;;;;;;3.80;1.72;;;26.30;99.90;;;;;;1929421;72;22220;-76
2023/08/10 10:01:07;;;;;;;2.67;1.57;;;26.50;99.90;;;;;;1923789;72;22288;-76
2023/08/10 10:03:59;;;;;;;2.60;1.57;;;26.50;99.90;;;;;;1886781;75;21152;-76
2023/08/10 10:09:34;;;;;;;3.60;1.77;;;26.40;99.90;;;;;;1935981;72;22286;-76
2023/08/10 10:51:01;;;;;;;2.50;1.32;;;27.50;99.90;;;;;;1934580;72;22218;-88
2023/08/10 10:53:54;;;;;;;2.37;1.40;;;27.50;99.90;;;;;;1917600;74;21192;-87
2023/08/10 10:56:46;;;;;;;2.45;1.60;;;27.40;99.90;;;;;;1926470;74;21079;-91
2023/08/10 10:59:37;;;;;;;3.27;1.50;;;27.50;99.90;;;;;;1886679;76;21228;-92
2023/08/10 11:02:29;;;;;;;2.12;1.50;;;27.50;99.90;;;;;;1888938;76;21176;-90
2023/08/10 11:05:20;;;;;;;2.02;1.60;;;27.50;99.90;;;;;;1890565;76;21113;-91
2023/08/10 11:08:13;;;;;;;3.50;1.45;;;27.60;99.90;;;;;;1911677;75;21052;-92
2023/08/10 11:13:45;;;;;;;1.32;1.10;;;27.90;99.90;;;;;;1944863;72;22206;-86
2023/08/10 11:16:43;;;;;;;1.90;1.50;;;28.00;99.90;;;;;;1921463;74;21098;-89
2023/08/10 11:19:34;;;;;;;3.25;1.20;;;28.10;99.90;;;;;;1895084;75;21211;-89
2023/08/10 11:22:26;;;;;;;3.37;1.57;;;28.30;99.90;;;;;;1923856;74;21101;-89
2023/08/10 11:25:20;;;;;;;2.95;1.57;;;28.60;99.90;;;;;;1889499;75;21079;-90
2023/08/10 11:28:12;;;;;;;2.50;1.60;;;28.80;99.90;;;;;;1901656;75;21090;-91
2023/08/10 11:31:04;;;;;;;3.80;2.05;;;29.20;99.90;;;;;;1918479;75;21074;-91
2023/08/10 11:33:57;;;;;;;2.45;1.50;;;29.50;99.90;;;;;;1887228;76;21120;-90
2023/08/10 11:36:50;;;;;;;2.10;1.62;;;29.60;99.90;;;;;;1896778;75;21096;-90
2023/08/10 12:21:03;;;;;;;2.87;1.82;;;29.60;97.50;;;;;;1945743;73;22142;-90
2023/08/10 12:23:55;;;;;;;2.60;2.00;;;29.40;97.40;;;;;;1891963;75;21136;-90
2023/08/10 12:26:47;;;;;;;6.55;2.10;;;29.40;97.00;;;;;;1899910;75;21098;-90
2023/08/10 12:29:40;;;;;;;2.20;1.72;;;29.30;96.90;;;;;;1923334;74;21148;-90
2023/08/10 12:32:31;;;;;;;2.40;1.45;;;29.20;96.80;;;;;;1900483;75;21550;-91
2023/08/10 12:35:24;;;;;;;3.52;1.77;;;29.20;96.80;;;;;;1910069;75;21177;-91
2023/08/10 12:41:53;;;;;;;3.17;1.50;;;29.20;96.90;;;;;;1985060;71;22113;-90
2023/08/10 12:44:44;;;;;;;4.42;2.27;;;29.30;97.00;;;;;;1956400;73;21060;-90
2023/08/10 12:47:36;;;;;;;2.60;1.70;;;29.50;96.60;;;;;;2035309;70;21068;-89
2023/08/10 12:50:27;;;;;;;2.10;1.57;;;29.70;97.90;;;;;;2039526;70;21061;-90
2023/08/10 12:53:18;;;;;;;3.05;1.62;;;29.80;98.50;;;;;;2038673;70;21020;-89
2023/08/10 12:56:09;;;;;;;2.75;1.40;;;29.90;98.40;;;;;;1991362;72;21111;-90
2023/08/10 12:59:00;;;;;;;2.17;1.70;;;29.90;98.40;;;;;;1946016;72;21067;-89
2023/08/10 13:01:52;;;;;;;3.05;1.65;;;29.90;98.50;;;;;;2024038;71;21341;-90
2023/08/10 13:04:45;;;;;;;3.25;2.00;;;29.90;98.20;;;;;;2023487;71;21024;-90
2023/08/10 13:07:37;;;;;;;2.67;1.40;;;29.70;98.00;;;;;;2022923;71;21152;-90
2023/08/10 13:10:28;;;;;;;2.95;1.82;;;29.80;97.90;;;;;;2023434;71;21031;-91
2023/08/10 13:13:19;;;;;;;2.67;1.90;;;30.00;97.30;;;;;;2023518;71;21028;-91
2023/08/10 13:16:10;;;;;;;2.08;1.50;;;30.20;96.90;;;;;;2023240;71;21132;-91
2023/08/10 13:19:02;;;;;;;2.17;1.70;;;30.20;95.90;;;;;;2023369;71;21136;-90
2023/08/10 13:21:53;;;;;;;2.85;1.70;;;30.00;95.90;;;;;;2023167;71;21020;-90
2023/08/10 13:24:46;;;;;;;2.00;1.80;;;30.00;96.00;;;;;;2022382;71;21652;-90
2023/08/10 13:27:38;;;;;;;2.35;1.60;;;29.90;96.50;;;;;;2021635;71;21110;-90
2023/08/10 13:30:30;;;;;;;1.65;1.50;;;29.90;95.80;;;;;;2022011;71;21086;-90
2023/08/10 13:33:24;;;;;;;3.45;1.80;;;29.90;96.20;;;;;;2021252;71;21526;-91
2023/08/10 13:36:16;;;;;;;2.62;1.90;;;29.80;96.40;;;;;;2021968;71;21185;-90
2023/08/10 13:39:09;;;;;;;2.55;1.70;;;29.90;96.50;;;;;;2021653;71;21147;-90
2023/08/10 13:42:00;;;;;;;2.02;1.65;;;30.10;96.80;;;;;;2028132;71;21094;-90
2023/08/10 13:44:52;;;;;;;2.58;2.35;;;30.40;95.80;;;;;;2028491;71;21148;-90
2023/08/10 13:47:43;;;;;;;5.10;2.00;;;30.80;95.40;;;;;;2032131;71;21111;-90
2023/08/10 13:50:35;;;;;;;2.17;1.67;;;30.90;94.70;;;;;;2028702;71;21101;-90
2023/08/10 13:53:26;;;;;;;4.50;1.72;;;31.00;94.90;;;;;;2029017;71;21158;-90
2023/08/10 13:56:18;;;;;;;3.62;1.90;;;31.20;94.90;;;;;;2029636;71;21043;-88
2023/08/10 13:59:09;;;;;;;2.77;2.30;;;31.30;94.30;;;;;;2030322;71;21078;-90
2023/08/10 14:02:01;;;;;;;2.92;1.92;;;31.20;94.30;;;;;;2028361;71;21071;-90
2023/08/10 14:04:53;;;;;;;2.60;1.77;;;31.70;94.70;;;;;;2028530;71;21111;-90
2023/08/10 14:07:46;;;;;;;2.12;1.47;;;32.50;93.40;;;;;;2028051;71;21047;-90
2023/08/10 14:10:37;;;;;;;2.52;1.77;;;33.40;92.50;;;;;;2028030;71;21074;-90
2023/08/10 14:13:29;;;;;;;2.33;2.08;;;33.60;91.20;;;;;;2027775;71;21059;-90
2023/08/10 14:16:20;;;;;;;3.72;1.82;;;34.20;89.00;;;;;;2027742;71;21143;-90
2023/08/10 14:19:12;;;;;;;3.60;2.05;;;34.40;89.30;;;;;;2028100;71;21056;-90
2023/08/10 14:22:04;;;;;;;3.75;2.58;;;34.50;86.50;;;;;;2027654;71;21133;-90
2023/08/10 14:24:56;;;;;;;3.45;1.85;;;34.50;84.90;;;;;;2027856;71;21089;-91
2023/08/10 14:27:48;;;;;;;3.60;1.80;;;34.60;84.20;;;;;;2027712;71;21157;-90
2023/08/10 14:30:40;;;;;;;2.67;2.45;;;34.70;80.90;;;;;;2028161;71;21074;-92
2023/08/10 14:33:31;;;;;;;2.37;2.17;;;35.20;81.10;;;;;;2027645;71;21530;-90
2023/08/10 14:36:23;;;;;;;3.02;2.60;;;35.50;78.70;;;;;;2027557;71;21080;-90
2023/08/10 14:39:14;;;;;;;3.02;2.20;;;35.30;78.80;;;;;;2027754;71;21590;-90
2023/08/10 14:42:07;;;;;;;2.70;2.27;;;35.40;77.10;;;;;;2025172;71;21097;-91
2023/08/10 14:44:59;;;;;;;2.75;2.40;;;36.10;77.20;;;;;;2020156;71;21035;-90
2023/08/10 14:48:05;;;;;;;2.60;2.00;;;36.60;75.20;;;;;;2020250;71;21078;-91
2023/08/10 14:50:57;;;;;;;3.25;2.30;;;37.00;74.60;;;;;;2020831;71;21136;-91
2023/08/10 14:53:53;;;;;;;4.00;1.90;;;38.10;72.00;;;;;;2021084;71;21030;-92
2023/08/10 14:56:47;;;;;;;3.45;2.52;;;38.10;68.50;;;;;;2020985;71;21076;-91
2023/08/10 14:59:42;;;;;;;2.22;1.80;;;38.30;67.10;;;;;;2020067;71;21099;-91
2023/08/10 15:02:35;;;;;;;3.25;1.60;;;37.90;66.00;;;;;;2020608;71;21115;-92
2023/08/10 15:05:31;;;;;;;2.98;1.80;;;37.70;65.70;;;;;;2020114;71;21101;-91
2023/08/10 15:08:25;;;;;;;2.98;1.92;;;37.40;65.70;;;;;;2019983;71;21039;-91
2023/08/10 15:11:19;;;;;;;1.90;1.50;;;37.00;66.10;;;;;;2019766;71;21128;-92
2023/08/10 15:14:17;;;;;;;5.50;1.90;;;36.20;66.60;;;;;;2020381;71;21156;-90
2023/08/10 15:17:12;;;;;;;2.58;1.70;;;35.20;68.20;;;;;;2020133;71;21066;-91
2023/08/10 15:20:11;;;;;;;2.50;1.52;;;34.70;69.80;;;;;;1990285;71;21086;-93
2023/08/10 15:23:06;;;;;;;2.10;1.90;;;34.10;72.00;;;;;;2020464;71;21137;-93
2023/08/10 15:26:01;;;;;;;2.25;1.77;;;33.50;73.70;;;;;;2020211;71;21098;-90
2023/08/10 15:28:59;;;;;;;2.30;1.82;;;33.10;74.10;;;;;;2020707;71;21078;-88
2023/08/10 15:31:54;;;;;;;3.33;1.72;;;33.50;74.40;;;;;;2019889;71;21106;-88
2023/08/10 15:34:51;;;;;;;1.82;1.37;;;33.40;74.10;;;;;;2020092;71;21130;-92
2023/08/10 15:37:43;;;;;;;1.85;1.55;;;33.10;75.40;;;;;;1991269;71;21055;-93
2023/08/10 15:40:37;;;;;;;4.50;1.60;;;33.20;75.50;;;;;;2020178;71;21074;-91
2023/08/10 15:43:34;;;;;;;3.22;1.70;;;32.40;75.70;;;;;;2020825;71;21218;-90
2023/08/10 15:46:28;;;;;;;2.50;1.67;;;32.00;76.30;;;;;;2022236;71;21088;-90
2023/08/10 15:49:23;;;;;;;2.45;1.42;;;32.80;76.40;;;;;;1970892;71;21075;-91
2023/08/10 15:52:15;;;;;;;1.55;1.10;;;33.90;73.90;;;;;;2019956;71;21082;-90
2023/08/10 15:55:12;;;;;;;1.85;1.30;;;34.70;71.50;;;;;;2021055;71;21103;-89
2023/08/10 15:58:09;;;;;;;3.85;1.60;;;34.60;71.10;;;;;;2020018;71;21506;-92
2023/08/10 16:01:10;;;;;;;2.05;1.20;;;33.60;72.80;;;;;;2020089;71;21086;-91
2023/08/10 16:04:02;;;;;;;2.40;1.47;;;32.80;73.90;;;;;;2020090;71;21135;-92
2023/08/10 16:07:04;;;;;;;2.60;1.20;;;33.20;74.90;;;;;;2019917;71;21078;-92
2023/08/10 16:09:57;;;;;;;1.32;1.17;;;34.10;73.70;;;;;;2020075;71;21087;-90
2023/08/10 16:12:56;;;;;;;2.30;1.57;;;34.20;72.80;;;;;;2021260;71;21176;-87
2023/08/10 16:15:51;;;;;;;3.15;1.32;;;34.70;71.90;;;;;;2020088;71;21056;-91
2023/08/10 16:18:46;;;;;;;1.80;1.32;;;34.70;72.40;;;;;;2019170;71;21091;-92
2023/08/10 16:21:44;;;;;;;2.17;1.50;;;34.40;72.20;;;;;;2019868;71;21101;-90
2023/08/10 16:24:37;;;;;;;1.65;1.32;;;35.20;70.60;;;;;;1991924;71;21176;-92
2023/08/10 16:27:28;;;;;;;2.02;1.30;;;36.30;69.70;;;;;;2020054;71;21074;-90
2023/08/10 16:30:19;;;;;;;2.27;1.30;;;36.40;69.00;;;;;;2019863;71;21094;-92
2023/08/10 16:33:11;;;;;;;4.00;1.60;;;36.50;68.70;;;;;;2020319;71;21043;-92
2023/08/10 16:36:03;;;;;;;3.95;1.52;;;37.30;66.40;;;;;;2020114;71;21415;-91
2023/08/10 16:38:55;;;;;;;2.83;1.40;;;36.90;66.90;;;;;;2020279;71;21151;-92
2023/08/10 16:41:48;;;;;;;2.92;1.52;;;37.70;67.00;;;;;;2020278;71;21639;-92
2023/08/10 16:44:39;;;;;;;2.67;1.80;;;37.50;66.70;;;;;;2024844;71;21219;-92
2023/08/10 16:47:32;;;;;;;4.55;3.02;;;38.10;65.60;;;;;;2027858;71;21147;-92
2023/08/10 16:50:26;;;;;;;4.62;1.52;;;39.00;65.10;;;;;;2027532;71;21147;-92
2023/08/10 16:53:17;;;;;;;1.95;1.55;;;39.70;63.30;;;;;;2027645;71;21591;-93
2023/08/10 16:56:09;;;;;;;2.65;1.60;;;39.40;63.70;;;;;;2027471;71;21494;-93
2023/08/10 16:59:00;;;;;;;3.20;1.92;;;39.00;62.90;;;;;;2028151;71;21606;-93
2023/08/10 17:01:52;;;;;;;2.75;1.80;;;38.50;63.40;;;;;;2027695;71;21151;-91
2023/08/10 17:04:46;;;;;;;1.85;1.45;;;38.10;63.70;;;;;;2027530;71;21074;-91
2023/08/10 17:07:37;;;;;;;3.10;1.62;;;37.80;64.40;;;;;;2027710;71;21188;-91
2023/08/10 17:10:29;;;;;;;4.12;2.50;;;37.80;64.80;;;;;;2027593;71;21118;-91
2023/08/10 17:13:20;;;;;;;4.10;2.33;;;37.50;64.40;;;;;;2027113;71;21090;-93
2023/08/10 17:16:12;;;;;;;2.77;2.17;;;37.40;64.10;;;;;;2027594;71;21166;-91
2023/08/10 17:19:03;;;;;;;3.00;2.70;;;36.60;65.40;;;;;;2027544;71;21051;-91
2023/08/10 17:21:55;;;;;;;2.00;1.57;;;36.00;67.10;;;;;;2030212;71;21004;-91
2023/08/10 17:24:48;;;;;;;2.55;1.70;;;35.00;68.40;;;;;;2030296;71;21085;-91
2023/08/10 17:27:40;;;;;;;3.77;2.60;;;34.30;70.40;;;;;;2027886;71;21101;-92
2023/08/10 17:30:31;;;;;;;2.35;1.95;;;33.90;71.20;;;;;;2027893;71;21131;-92
2023/08/10 17:33:22;;;;;;;3.75;2.50;;;34.10;71.90;;;;;;2027860;71;21074;-92
2023/08/10 17:36:14;;;;;;;3.98;2.60;;;34.30;72.60;;;;;;2029223;71;21039;-90
2023/08/10 17:39:06;;;;;;;2.90;2.65;;;34.40;72.40;;;;;;2031094;71;21136;-91
2023/08/10 17:41:58;;;;;;;4.60;2.02;;;34.40;71.70;;;;;;2028637;71;21208;-92
2023/08/10 17:44:52;;;;;;;2.40;2.20;;;34.60;71.70;;;;;;2026665;71;21168;-91
2023/08/10 17:47:43;;;;;;;3.83;2.40;;;35.00;72.00;;;;;;2020706;71;21102;-92
2023/08/10 17:50:35;;;;;;;2.02;1.40;;;34.80;70.80;;;;;;2020462;71;21079;-91
2023/08/10 17:53:27;;;;;;;2.30;2.10;;;34.80;68.90;;;;;;2020183;71;21070;-92
2023/08/10 17:56:18;;;;;;;2.00;1.80;;;34.20;71.60;;;;;;2035619;69;21171;-89
2023/08/10 17:59:10;;;;;;;3.02;1.95;;;33.70;73.00;;;;;;2037818;70;21183;-89
2023/08/10 18:02:01;;;;;;;2.85;1.67;;;33.20;74.50;;;;;;2037938;70;22336;-90
2023/08/10 18:04:54;;;;;;;2.75;1.42;;;32.80;75.20;;;;;;2038069;70;21207;-90
2023/08/10 18:07:45;;;;;;;2.72;1.90;;;32.30;76.20;;;;;;2037871;70;21089;-90
2023/08/10 18:10:38;;;;;;;2.00;1.57;;;31.80;77.60;;;;;;2036620;70;21154;-90
2023/08/10 18:13:29;;;;;;;3.10;1.80;;;31.50;78.50;;;;;;2029093;70;21123;-89
2023/08/10 18:16:24;;;;;;;2.77;1.60;;;31.10;80.40;;;;;;2029515;70;21079;-89
2023/08/10 18:19:14;;;;;;;2.87;1.72;;;30.90;80.60;;;;;;2029377;70;21902;-89
2023/08/10 18:22:06;;;;;;;1.75;1.60;;;30.80;81.20;;;;;;2029766;70;21120;-89
2023/08/10 18:24:59;;;;;;;3.30;1.72;;;30.70;82.20;;;;;;2030900;70;21074;-89
2023/08/10 18:27:51;;;;;;;3.47;1.57;;;30.40;82.90;;;;;;2037656;70;21090;-90
2023/08/10 18:30:43;;;;;;;2.83;1.70;;;30.20;83.80;;;;;;2038593;70;21149;-89
2023/08/10 18:33:35;;;;;;;2.65;1.72;;;29.90;85.40;;;;;;2039335;70;21183;-89
2023/08/10 18:36:26;;;;;;;1.70;1.42;;;29.70;86.50;;;;;;2030486;70;21522;-89
2023/08/10 18:39:18;;;;;;;3.60;1.98;;;29.40;87.50;;;;;;2030218;70;21083;-89
2023/08/10 18:42:11;;;;;;;3.35;1.90;;;29.20;89.10;;;;;;2029809;70;21119;-89
2023/08/10 18:45:02;;;;;;;3.75;1.87;;;29.00;90.10;;;;;;2029495;70;21080;-90
2023/08/10 18:47:55;;;;;;;3.87;2.17;;;28.80;90.60;;;;;;2030136;70;21063;-89
2023/08/10 21:34:16;;;;;;;3.62;2.17;;;24.20;99.90;;;;;;1936385;72;22245;-89
2023/08/10 21:37:08;;;;;;;3.95;2.47;;;24.20;99.90;;;;;;1915280;75;21118;-89
2023/08/10 21:39:59;;;;;;;4.45;2.37;;;24.20;99.90;;;;;;1886270;75;21198;-90
2023/08/10 21:42:51;;;;;;;2.77;2.17;;;24.30;99.90;;;;;;1888394;75;21217;-89
2023/08/10 21:45:42;;;;;;;3.90;2.50;;;24.40;99.90;;;;;;1886229;75;21122;-88
2023/08/10 21:48:33;;;;;;;3.80;2.70;;;24.40;99.90;;;;;;1884443;75;21047;-78
2023/08/10 21:51:25;;;;;;;5.08;2.87;;;24.30;99.90;;;;;;1895187;75;21136;-76
2023/08/10 21:54:16;;;;;;;3.90;2.83;;;24.10;99.90;;;;;;1896987;75;21245;-76
2023/08/10 21:59:48;;;;;;;4.15;2.40;;;24.00;99.90;;;;;;1966129;72;22188;-76
2023/08/10 22:02:39;;;;;;;3.60;2.12;;;23.90;99.90;;;;;;1914270;73;21216;-76
2023/08/10 22:05:31;;;;;;;3.80;2.70;;;23.80;99.90;;;;;;1926988;73;21068;-76
2023/08/10 22:08:22;;;;;;;6.08;2.50;;;23.80;99.90;;;;;;1915170;73;21126;-76
2023/08/10 22:11:15;;;;;;;2.50;2.15;;;23.80;99.90;;;;;;1927892;73;21183;-76
2023/08/10 22:16:45;;;;;;;2.65;2.20;;;23.80;99.90;;;;;;1945065;72;22259;-76
2023/08/10 22:19:36;;;;;;;3.35;2.30;;;23.80;99.90;;;;;;1922418;73;21098;-76
2023/08/10 22:22:28;;;;;;;4.28;2.12;;;23.70;99.90;;;;;;1914681;74;21489;-76
2023/08/10 22:25:19;;;;;;;3.35;2.05;;;23.60;99.90;;;;;;1945970;73;21059;-76
2023/08/10 22:30:51;;;;;;;6.50;4.00;;;23.60;99.90;;;;;;1953869;72;22178;-75